McVille, ND (58254)

2:57 AM CST on November 29, 2014 (GMT -0600)
Grand Forks Air Force Base | Change Station
CLOSE
Current Station
Airport
Location: Grand Forks AFB,
Elevation: 912 ft
Nearby Weather Stations
Active Advisory: Special Statement

Elev 912 ft 47.96 °N, 97.40 °W | Updated 19 minutes ago

Overcast
Overcast
19 °F
Feels Like 10 °F
N
7
Wind Variable Wind from South

Today
High -- | Low -- °F
--% Chance of Precip.
Yesterday
High -- | Low -- °F
Precip. -- in
7:58 AM 4:43 PM
Waxing Crescent, 49% visible
Pressure 29.48 in
Visibility 10.0 miles
Clouds Overcast 900 ft
Windchill 10 °F
Dew Point 16 °F
Humidity 86%
Rainfall 0.00 in
Snow Depth Not available.
UV 0 out of 12
Pollen .10 out of 12
Air Quality Not available.
Flu Activity Not available.
SPECI KRDR 290838Z AUTO 19006KT 10SM OVC009 M07/M09 A2948 RMK AO2

More Conditions Fewer Conditions

Pressure 29.48 in
Visibility 10.0 miles
Clouds Overcast 900 ft
Windchill 10 °F
Dew Point 16 °F
Humidity 86%
Rainfall 0.00 in
Snow Depth Not available.
UV 0 out of 12
Pollen .10 out of 12
Air Quality Not available.
Flu Activity Not available.
SPECI KRDR 290838Z AUTO 19006KT 10SM OVC009 M07/M09 A2948 RMK AO2

More Conditions Fewer Conditions

10-Day Weather Forecast

Almanac

Astronomy

Nov. 29, 2014 Rise Set
Actual Time
Civil Twilight
Nautical Twilight
Astronomical Twilight
Moon
Length of Visible Light
Length of Day
Tomorrow will be .
, % of the Moon is Illuminated

Today's Extremes

State Highs State Lows

Community

WunderPhotos

Upload Photos

1,774,442 photos uploaded!

WunderBlogs® & News

Nearby

Air Quality

  Air Quality AQ Index Pollutant
Not available.

Snow Depth

Station Depth Elevation

Earthquake Activity

City Distance Mag. Time & Date
Minimum magnitude displayed is 2.5.

Coastal Water Temperatures

Place Temperature

Nearby Weather Stations